Time;durP1;ratioP1;P1;durP2;ratioP2;P2;SDS_P1;SDS_P2;PMS_P1;PMS_P2;Temp;Humidity;BMP_temperature;BMP_pressure;BME280_temperature;BME280_humidity;BME280_pressure;Samples;Min_cycle;Max_cycle;Signal;HPM_P1;HPM_P2
2022/08/16 00:00:33;;;;;;;1.10;1.10;;;21.10;99.90;;;;;;5045543;28;20324;-76
2022/08/16 00:03:01;;;;;;;1.30;1.20;;;21.00;99.90;;;;;;5041936;28;20283;-78
2022/08/16 00:05:30;;;;;;;1.30;1.20;;;20.90;99.90;;;;;;5047114;28;20704;-77
2022/08/16 00:07:58;;;;;;;1.20;1.10;;;20.80;99.90;;;;;;5038672;28;20207;-76
2022/08/16 00:10:28;;;;;;;1.88;1.30;;;20.70;99.90;;;;;;5040613;28;20785;-77
2022/08/16 00:12:58;;;;;;;0.90;0.90;;;20.70;99.90;;;;;;5045278;28;20207;-78
2022/08/16 00:15:27;;;;;;;1.23;1.13;;;20.70;99.90;;;;;;5041487;28;20211;-77
2022/08/16 00:17:54;;;;;;;1.40;1.23;;;20.80;99.90;;;;;;5036659;28;20200;-78
2022/08/16 00:20:22;;;;;;;2.28;1.27;;;20.90;99.90;;;;;;5039625;28;20218;-76
2022/08/16 00:22:51;;;;;;;1.10;1.10;;;21.00;99.90;;;;;;5035650;28;20298;-77
2022/08/16 00:25:20;;;;;;;1.00;1.00;;;21.10;99.90;;;;;;5041465;28;20215;-77
2022/08/16 00:27:48;;;;;;;0.93;0.90;;;21.00;99.90;;;;;;5041559;28;20198;-77
2022/08/16 00:30:18;;;;;;;1.10;1.10;;;21.00;99.90;;;;;;5041561;28;20218;-77
2022/08/16 00:32:48;;;;;;;1.00;1.00;;;21.00;99.90;;;;;;5034911;28;20196;-77
2022/08/16 00:35:19;;;;;;;1.08;1.08;;;21.00;99.90;;;;;;5040961;28;20226;-77
2022/08/16 00:37:47;;;;;;;0.90;0.90;;;21.00;99.90;;;;;;5042238;28;20202;-77
2022/08/16 00:40:18;;;;;;;0.90;0.90;;;21.00;99.90;;;;;;5039870;28;20223;-78
2022/08/16 00:42:45;;;;;;;1.25;1.15;;;21.00;99.90;;;;;;5040988;28;20210;-77
2022/08/16 00:45:25;;;;;;;0.90;0.90;;;20.90;99.90;;;;;;5049256;28;20219;-77
2022/08/16 00:47:52;;;;;;;1.23;1.13;;;20.90;99.90;;;;;;5047949;28;20211;-77
2022/08/16 00:50:28;;;;;;;1.08;1.08;;;20.90;99.90;;;;;;5043240;28;20220;-78
2022/08/16 00:52:55;;;;;;;1.95;1.10;;;20.60;99.90;;;;;;5045219;28;20218;-78
2022/08/16 00:55:25;;;;;;;1.77;1.10;;;20.40;99.90;;;;;;5046562;28;20832;-77
2022/08/16 00:57:56;;;;;;;1.05;1.05;;;20.30;99.90;;;;;;5050037;28;20214;-77
2022/08/16 01:00:27;;;;;;;1.25;1.10;;;20.30;99.90;;;;;;5044895;28;20233;-77
2022/08/16 01:02:55;;;;;;;1.95;1.05;;;20.40;99.90;;;;;;5049365;28;20644;-77
2022/08/16 01:05:22;;;;;;;0.95;0.95;;;20.40;99.90;;;;;;5048403;28;20317;-77
2022/08/16 01:07:50;;;;;;;1.38;1.27;;;20.40;99.90;;;;;;5046521;28;20677;-77
2022/08/16 01:10:17;;;;;;;1.00;1.00;;;20.30;99.90;;;;;;5048959;28;20223;-77
2022/08/16 01:12:45;;;;;;;1.13;1.13;;;20.20;99.90;;;;;;5045908;28;20696;-77
2022/08/16 01:15:13;;;;;;;1.02;1.02;;;20.10;99.90;;;;;;5048770;28;20248;-77
2022/08/16 01:17:43;;;;;;;1.15;1.10;;;20.10;99.90;;;;;;5049013;28;20586;-78
2022/08/16 01:20:12;;;;;;;0.93;0.90;;;20.10;99.90;;;;;;5048874;28;20276;-77
2022/08/16 01:22:47;;;;;;;1.00;1.00;;;20.10;99.90;;;;;;5045622;28;20191;-77
2022/08/16 01:25:21;;;;;;;0.98;0.98;;;20.10;99.90;;;;;;5044404;28;20241;-77
2022/08/16 01:27:52;;;;;;;0.95;0.95;;;20.00;99.90;;;;;;5045135;28;20206;-78
2022/08/16 01:30:23;;;;;;;1.20;1.20;;;20.10;99.90;;;;;;5046746;28;20643;-76
2022/08/16 01:32:52;;;;;;;1.10;1.10;;;20.10;99.90;;;;;;5045924;28;20318;-77
2022/08/16 01:35:24;;;;;;;1.10;1.10;;;20.10;99.90;;;;;;5045740;28;20582;-75
2022/08/16 01:37:53;;;;;;;1.15;1.00;;;20.00;99.90;;;;;;5043603;28;20210;-77
2022/08/16 01:40:25;;;;;;;1.02;0.95;;;20.00;99.90;;;;;;5046369;28;20242;-77
2022/08/16 01:42:53;;;;;;;1.00;1.00;;;20.00;99.90;;;;;;5049866;28;20287;-76
2022/08/16 01:45:20;;;;;;;1.00;1.00;;;19.90;99.90;;;;;;5045858;28;20222;-77
2022/08/16 01:47:50;;;;;;;0.90;0.90;;;19.90;99.90;;;;;;5050219;28;20196;-78
2022/08/16 01:50:19;;;;;;;1.20;1.10;;;19.90;99.90;;;;;;5048323;28;20774;-78
2022/08/16 01:52:46;;;;;;;1.00;1.00;;;19.90;99.90;;;;;;5051716;28;20206;-78
2022/08/16 01:55:16;;;;;;;1.13;1.10;;;19.90;99.90;;;;;;5048317;28;21030;-78
2022/08/16 01:57:44;;;;;;;1.20;1.20;;;19.80;99.90;;;;;;5047690;28;20198;-77
2022/08/16 02:00:14;;;;;;;1.05;1.00;;;19.90;99.90;;;;;;5049206;28;20798;-78
2022/08/16 02:02:41;;;;;;;0.98;0.98;;;19.80;99.90;;;;;;5051350;28;20199;-78
2022/08/16 02:05:09;;;;;;;0.88;0.88;;;19.80;99.90;;;;;;5046579;28;20218;-78
2022/08/16 02:07:37;;;;;;;0.80;0.80;;;19.80;99.90;;;;;;5048466;28;20211;-78
2022/08/16 02:10:06;;;;;;;1.35;0.98;;;19.80;99.90;;;;;;5046118;28;20225;-78
2022/08/16 02:12:33;;;;;;;1.10;1.10;;;19.80;99.90;;;;;;5049092;28;20194;-76
2022/08/16 02:15:03;;;;;;;1.05;1.05;;;19.80;99.90;;;;;;5047691;28;20218;-78
2022/08/16 02:17:30;;;;;;;1.10;1.10;;;19.70;99.90;;;;;;5046209;28;20297;-78
2022/08/16 02:19:57;;;;;;;0.90;0.90;;;19.80;99.90;;;;;;5045806;28;20225;-77
2022/08/16 02:22:25;;;;;;;1.15;1.10;;;19.70;99.90;;;;;;5049869;28;20203;-77
2022/08/16 02:24:52;;;;;;;1.17;1.17;;;19.60;99.90;;;;;;5048686;28;20218;-78
2022/08/16 02:27:19;;;;;;;1.00;1.00;;;19.60;99.90;;;;;;5048456;28;20190;-78
2022/08/16 02:29:46;;;;;;;1.50;1.05;;;19.60;99.90;;;;;;5049184;28;20207;-78
2022/08/16 02:32:16;;;;;;;0.82;0.82;;;19.60;99.90;;;;;;5047771;28;20257;-78
2022/08/16 02:34:44;;;;;;;1.02;0.80;;;19.50;99.90;;;;;;5047682;28;20214;-79
2022/08/16 02:37:11;;;;;;;0.98;0.98;;;19.60;99.90;;;;;;5050686;28;20230;-78
2022/08/16 02:39:38;;;;;;;1.10;1.10;;;19.50;99.90;;;;;;5049410;28;20218;-78
2022/08/16 02:42:06;;;;;;;1.08;1.08;;;19.50;99.90;;;;;;5046859;28;20252;-77
2022/08/16 02:44:33;;;;;;;1.35;1.17;;;19.50;99.90;;;;;;5044570;28;20222;-77
2022/08/16 02:47:00;;;;;;;1.10;1.10;;;19.50;99.90;;;;;;5043470;28;20207;-76
2022/08/16 02:49:29;;;;;;;1.02;1.02;;;19.50;99.90;;;;;;5046944;28;20315;-78
2022/08/16 02:51:56;;;;;;;1.33;1.10;;;19.40;99.90;;;;;;5046035;28;20226;-77
2022/08/16 02:54:23;;;;;;;0.80;0.80;;;19.40;99.90;;;;;;5047771;28;20555;-76
2022/08/16 02:56:50;;;;;;;0.93;0.88;;;19.40;99.90;;;;;;5044115;28;20222;-74
2022/08/16 02:59:17;;;;;;;1.20;1.10;;;19.30;99.90;;;;;;5039291;28;20214;-76
2022/08/16 03:01:45;;;;;;;0.98;0.98;;;19.40;99.90;;;;;;5043578;28;20203;-76
2022/08/16 03:04:12;;;;;;;1.00;1.00;;;19.40;99.90;;;;;;5043326;28;20223;-77
2022/08/16 03:06:40;;;;;;;1.20;1.10;;;19.30;99.90;;;;;;5049453;28;20700;-77
2022/08/16 03:09:08;;;;;;;1.30;1.20;;;19.30;99.90;;;;;;5047844;28;20738;-75
2022/08/16 03:11:35;;;;;;;0.90;0.90;;;19.30;99.90;;;;;;5047862;28;20691;-73
2022/08/16 03:14:02;;;;;;;1.20;1.20;;;19.20;99.90;;;;;;5047211;28;20230;-77
2022/08/16 03:16:29;;;;;;;1.15;1.15;;;19.10;99.90;;;;;;5043953;28;20248;-77
2022/08/16 03:18:56;;;;;;;1.40;1.30;;;19.10;99.90;;;;;;5042795;28;20858;-77
2022/08/16 03:21:24;;;;;;;1.20;1.10;;;19.10;99.90;;;;;;5048244;28;20219;-76
2022/08/16 03:23:52;;;;;;;0.90;0.90;;;19.10;99.90;;;;;;5045697;28;20908;-75
2022/08/16 03:26:19;;;;;;;0.90;0.90;;;19.10;99.90;;;;;;5047128;28;20238;-79
2022/08/16 03:28:47;;;;;;;1.00;1.00;;;19.10;99.90;;;;;;5046048;28;20657;-76
2022/08/16 03:31:14;;;;;;;1.40;1.30;;;19.10;99.90;;;;;;5048903;28;20705;-77
2022/08/16 03:33:41;;;;;;;1.60;1.33;;;19.00;99.90;;;;;;5048369;28;20226;-76
2022/08/16 03:36:09;;;;;;;1.00;1.00;;;19.00;99.90;;;;;;5047672;28;20309;-78
2022/08/16 03:38:37;;;;;;;1.10;1.10;;;19.00;99.90;;;;;;5048089;28;20286;-77
2022/08/16 03:41:07;;;;;;;1.40;1.30;;;18.90;99.90;;;;;;5045177;28;20233;-77
2022/08/16 03:43:34;;;;;;;1.17;1.17;;;18.90;99.90;;;;;;5046152;28;20225;-77
2022/08/16 03:46:02;;;;;;;1.40;1.30;;;18.90;99.90;;;;;;5043790;28;20222;-77
2022/08/16 03:48:32;;;;;;;1.08;1.08;;;18.90;99.90;;;;;;5047437;28;20202;-77
2022/08/16 03:51:00;;;;;;;1.10;1.10;;;18.90;99.90;;;;;;5046075;28;20237;-76
2022/08/16 03:53:27;;;;;;;0.90;0.90;;;18.90;99.90;;;;;;5047269;28;20215;-77
2022/08/16 03:55:55;;;;;;;1.00;1.00;;;18.80;99.90;;;;;;5044476;28;20211;-77
2022/08/16 03:58:23;;;;;;;1.33;1.25;;;18.90;99.90;;;;;;5047790;28;21006;-77
2022/08/16 04:00:50;;;;;;;1.15;1.15;;;18.80;99.90;;;;;;5047826;28;20230;-77
2022/08/16 04:03:17;;;;;;;1.20;1.17;;;18.80;99.90;;;;;;5046208;28;20219;-77
2022/08/16 04:05:47;;;;;;;1.33;1.30;;;18.80;99.90;;;;;;5047541;28;20210;-78
2022/08/16 04:08:14;;;;;;;1.42;1.33;;;18.80;99.90;;;;;;5050769;28;20195;-77
2022/08/16 04:10:41;;;;;;;1.40;1.30;;;18.70;99.90;;;;;;5046876;28;20701;-77
2022/08/16 04:13:09;;;;;;;1.05;0.98;;;18.70;99.90;;;;;;5044214;28;20242;-77
2022/08/16 04:15:37;;;;;;;1.45;1.35;;;18.70;99.90;;;;;;5047172;28;20226;-75
2022/08/16 04:18:05;;;;;;;1.33;1.23;;;18.70;99.90;;;;;;5044409;28;20199;-76
2022/08/16 04:20:33;;;;;;;1.65;1.25;;;18.70;99.90;;;;;;5044881;28;20215;-76
2022/08/16 04:23:01;;;;;;;1.23;1.23;;;18.70;99.90;;;;;;5045847;28;20222;-76
2022/08/16 04:25:29;;;;;;;1.20;1.20;;;18.70;99.90;;;;;;5048862;28;20254;-76
2022/08/16 04:27:56;;;;;;;1.30;1.30;;;18.60;99.90;;;;;;5049094;28;20199;-76
2022/08/16 04:30:24;;;;;;;1.52;1.10;;;18.60;99.90;;;;;;5047947;28;20211;-76
2022/08/16 04:32:52;;;;;;;1.17;1.17;;;18.60;99.90;;;;;;5046758;28;20673;-76
2022/08/16 04:35:22;;;;;;;1.13;1.02;;;18.60;99.90;;;;;;5050333;28;20571;-76
2022/08/16 04:37:50;;;;;;;1.10;1.10;;;18.60;99.90;;;;;;5050599;28;20199;-76
2022/08/16 04:40:20;;;;;;;1.20;1.20;;;18.60;99.90;;;;;;5050533;28;20234;-77
2022/08/16 04:42:49;;;;;;;1.23;1.13;;;18.70;99.90;;;;;;5056215;28;20205;-77
2022/08/16 04:45:17;;;;;;;1.60;1.50;;;18.70;99.90;;;;;;5057338;28;20223;-76
2022/08/16 04:47:45;;;;;;;1.35;1.25;;;18.80;99.90;;;;;;5054978;28;20227;-77
2022/08/16 04:50:16;;;;;;;1.10;1.10;;;18.70;99.90;;;;;;5051916;28;20226;-76
2022/08/16 04:52:45;;;;;;;1.33;1.30;;;18.70;99.90;;;;;;5049267;28;20577;-76
2022/08/16 04:55:15;;;;;;;1.55;1.10;;;18.70;99.90;;;;;;5048391;28;20250;-77
2022/08/16 04:57:42;;;;;;;1.33;1.23;;;18.70;99.90;;;;;;5050379;28;20194;-78
2022/08/16 05:00:13;;;;;;;1.38;1.30;;;18.60;99.90;;;;;;5050086;28;20215;-77
2022/08/16 05:02:41;;;;;;;1.10;1.10;;;18.70;99.90;;;;;;5055438;28;20207;-77
2022/08/16 05:05:09;;;;;;;1.10;1.10;;;19.00;99.90;;;;;;5056627;28;20316;-77
2022/08/16 05:07:38;;;;;;;1.20;1.20;;;19.30;99.90;;;;;;5056954;28;20199;-76
2022/08/16 05:10:06;;;;;;;1.40;1.30;;;19.50;99.90;;;;;;5055675;28;20215;-76
2022/08/16 05:12:33;;;;;;;1.35;1.27;;;19.80;99.90;;;;;;5052504;28;20672;-77
2022/08/16 05:15:01;;;;;;;3.35;1.70;;;20.00;99.90;;;;;;5053101;28;20220;-77
2022/08/16 05:17:28;;;;;;;1.63;1.52;;;20.00;99.90;;;;;;5053522;28;20703;-77
2022/08/16 05:19:55;;;;;;;1.70;1.60;;;20.00;99.90;;;;;;5054200;28;20223;-77
2022/08/16 05:22:22;;;;;;;1.60;1.50;;;20.00;99.90;;;;;;5050106;28;20195;-77
2022/08/16 05:24:51;;;;;;;2.15;1.65;;;20.10;99.90;;;;;;5053845;28;20234;-77
2022/08/16 05:27:18;;;;;;;2.08;1.88;;;20.10;99.90;;;;;;5054045;28;20207;-78
2022/08/16 05:29:45;;;;;;;2.85;1.83;;;20.20;99.90;;;;;;5053649;28;20245;-77
2022/08/16 05:32:12;;;;;;;2.20;1.80;;;20.20;99.90;;;;;;5055731;28;20195;-77
2022/08/16 05:34:39;;;;;;;1.42;1.40;;;20.20;99.90;;;;;;5050411;28;20223;-77
2022/08/16 05:37:06;;;;;;;1.70;1.60;;;20.20;99.90;;;;;;5049561;28;20448;-77
2022/08/16 05:39:33;;;;;;;1.92;1.80;;;20.40;99.90;;;;;;5050910;28;20639;-77
2022/08/16 05:42:01;;;;;;;1.70;1.60;;;20.50;99.90;;;;;;5054556;28;20199;-77
2022/08/16 05:44:28;;;;;;;1.80;1.70;;;20.60;99.90;;;;;;5053351;28;20239;-77
2022/08/16 05:46:57;;;;;;;2.10;1.88;;;20.60;99.90;;;;;;5051781;28;20208;-77
2022/08/16 05:49:26;;;;;;;1.67;1.58;;;20.60;99.90;;;;;;5049128;28;20206;-77
2022/08/16 05:51:54;;;;;;;1.90;1.70;;;20.60;99.90;;;;;;5053555;28;20194;-78
2022/08/16 05:54:22;;;;;;;2.95;1.75;;;20.70;99.90;;;;;;5056656;28;20211;-77
2022/08/16 05:56:49;;;;;;;1.90;1.80;;;20.70;99.90;;;;;;5058142;28;20198;-77
2022/08/16 05:59:19;;;;;;;1.70;1.60;;;20.70;99.90;;;;;;5061180;28;20252;-78
2022/08/16 06:01:49;;;;;;;2.17;1.98;;;20.80;99.90;;;;;;5054287;28;20223;-77
2022/08/16 06:04:16;;;;;;;1.83;1.73;;;20.90;99.90;;;;;;5047938;28;20314;-77
2022/08/16 06:06:44;;;;;;;2.20;1.65;;;21.00;99.90;;;;;;5051401;28;20199;-77
2022/08/16 06:09:12;;;;;;;2.25;1.70;;;21.10;99.90;;;;;;5048567;28;20203;-77
2022/08/16 06:11:40;;;;;;;2.10;1.90;;;21.20;99.90;;;;;;5049741;28;20278;-78
2022/08/16 06:14:07;;;;;;;1.90;1.80;;;21.30;99.90;;;;;;5045022;28;20215;-78
2022/08/16 06:16:36;;;;;;;2.10;2.00;;;21.30;99.90;;;;;;5048003;28;20199;-77
2022/08/16 06:19:03;;;;;;;1.83;1.73;;;21.30;99.90;;;;;;5047796;28;20273;-78
2022/08/16 06:21:30;;;;;;;3.08;2.10;;;21.40;99.90;;;;;;5046348;28;20215;-78
2022/08/16 06:23:57;;;;;;;1.70;1.60;;;21.60;99.90;;;;;;5042635;28;20229;-78
2022/08/16 06:26:25;;;;;;;1.88;1.70;;;21.80;99.90;;;;;;5047527;28;20258;-78
2022/08/16 06:28:52;;;;;;;2.20;1.95;;;21.80;99.90;;;;;;5044985;28;20207;-78
2022/08/16 06:31:19;;;;;;;1.80;1.70;;;21.60;99.90;;;;;;5040899;28;20705;-76
2022/08/16 06:33:47;;;;;;;2.55;1.90;;;21.70;99.90;;;;;;5035501;28;20229;-77
2022/08/16 06:36:15;;;;;;;2.05;1.80;;;21.80;99.90;;;;;;5038788;28;20215;-77
2022/08/16 06:38:43;;;;;;;2.00;1.80;;;21.80;99.90;;;;;;5040715;28;20288;-76
2022/08/16 06:41:11;;;;;;;2.05;1.95;;;22.00;99.90;;;;;;5044480;28;20321;-75
2022/08/16 06:43:39;;;;;;;3.50;1.77;;;22.20;99.90;;;;;;5028040;28;20230;-76
2022/08/16 06:46:09;;;;;;;1.75;1.65;;;22.20;99.90;;;;;;5039329;28;20215;-76
2022/08/16 06:48:39;;;;;;;2.40;1.70;;;22.30;99.90;;;;;;5038114;28;20193;-75
2022/08/16 06:51:08;;;;;;;1.85;1.75;;;22.20;99.90;;;;;;5038192;28;20974;-75
2022/08/16 06:53:35;;;;;;;1.80;1.70;;;22.10;99.90;;;;;;5040346;28;20222;-75
2022/08/16 06:56:05;;;;;;;3.38;2.05;;;22.20;99.90;;;;;;5037290;28;20624;-77
2022/08/16 06:58:33;;;;;;;1.83;1.70;;;22.20;99.90;;;;;;5041763;28;20199;-77
2022/08/16 07:01:01;;;;;;;2.40;2.20;;;22.20;99.90;;;;;;5035439;28;21593;-75
2022/08/16 07:03:28;;;;;;;1.73;1.63;;;22.30;99.90;;;;;;5032671;28;20219;-77
2022/08/16 07:05:56;;;;;;;1.75;1.65;;;22.20;99.90;;;;;;5042546;28;20223;-75
2022/08/16 07:08:26;;;;;;;1.95;1.85;;;22.30;99.90;;;;;;5035311;28;20302;-75
2022/08/16 07:10:53;;;;;;;1.80;1.70;;;22.30;99.90;;;;;;5037911;28;20222;-75
2022/08/16 07:13:21;;;;;;;3.08;1.92;;;22.40;99.90;;;;;;5033304;28;20227;-75
2022/08/16 07:15:50;;;;;;;2.13;1.92;;;22.40;99.90;;;;;;5036242;28;20223;-76
2022/08/16 07:18:18;;;;;;;1.80;1.70;;;22.40;99.90;;;;;;5035242;28;20219;-76
2022/08/16 07:20:46;;;;;;;1.83;1.73;;;22.30;99.90;;;;;;5034832;28;20299;-77
2022/08/16 07:23:13;;;;;;;2.67;2.22;;;22.40;99.90;;;;;;5038763;28;20222;-78
2022/08/16 07:25:43;;;;;;;2.08;1.83;;;22.50;99.90;;;;;;5034219;28;20768;-75
2022/08/16 07:28:12;;;;;;;3.08;2.03;;;22.50;99.90;;;;;;5039926;28;20198;-74
2022/08/16 07:30:40;;;;;;;1.77;1.67;;;22.50;99.90;;;;;;5039920;28;20219;-75
2022/08/16 07:33:09;;;;;;;1.92;1.70;;;22.70;99.90;;;;;;5039801;28;20195;-74
2022/08/16 07:35:36;;;;;;;2.78;2.13;;;22.90;99.90;;;;;;5040961;28;20257;-77
2022/08/16 07:38:05;;;;;;;2.10;1.90;;;23.10;99.90;;;;;;5040621;28;20853;-75
2022/08/16 07:40:32;;;;;;;1.90;1.80;;;23.20;99.90;;;;;;5049962;28;20273;-77
2022/08/16 07:43:01;;;;;;;2.25;2.00;;;23.20;99.90;;;;;;5046985;28;20262;-77
2022/08/16 07:45:28;;;;;;;1.60;1.50;;;23.20;99.90;;;;;;5048996;28;20220;-76
2022/08/16 07:47:55;;;;;;;2.00;1.90;;;23.00;99.90;;;;;;5050710;28;20202;-77
2022/08/16 07:50:23;;;;;;;2.67;1.95;;;23.00;99.90;;;;;;5043241;28;20226;-75
2022/08/16 07:52:50;;;;;;;2.03;1.83;;;23.10;99.90;;;;;;5041023;28;20741;-76
2022/08/16 07:55:18;;;;;;;1.95;1.60;;;23.30;99.90;;;;;;5043570;28;20222;-76
2022/08/16 07:57:45;;;;;;;2.08;1.67;;;23.40;99.90;;;;;;5045543;28;20214;-77
2022/08/16 08:00:16;;;;;;;1.85;1.65;;;23.40;99.90;;;;;;5038985;28;20211;-77
2022/08/16 08:02:45;;;;;;;1.98;1.83;;;23.60;99.90;;;;;;5037361;28;20203;-76
2022/08/16 08:05:12;;;;;;;3.55;1.77;;;23.80;99.90;;;;;;5040163;28;20226;-76
2022/08/16 08:07:39;;;;;;;3.80;1.70;;;24.00;99.90;;;;;;5043916;28;20206;-76
2022/08/16 08:10:08;;;;;;;1.67;1.58;;;24.10;99.90;;;;;;5044363;28;20215;-75
2022/08/16 08:12:36;;;;;;;2.10;1.83;;;24.40;99.90;;;;;;5052284;28;20202;-75
2022/08/16 08:15:05;;;;;;;2.13;1.98;;;24.40;99.90;;;;;;5047774;28;20233;-75
2022/08/16 08:17:37;;;;;;;2.03;1.90;;;24.40;99.90;;;;;;5051463;28;20790;-76
2022/08/16 08:20:05;;;;;;;2.03;1.80;;;24.40;99.90;;;;;;5043640;28;20984;-75
2022/08/16 08:22:33;;;;;;;1.85;1.75;;;24.50;99.90;;;;;;5048177;28;20211;-76
2022/08/16 08:25:01;;;;;;;1.85;1.70;;;24.60;99.90;;;;;;5052488;28;20234;-77
2022/08/16 08:27:28;;;;;;;2.03;1.80;;;24.50;99.90;;;;;;5051822;28;20203;-77
2022/08/16 08:29:57;;;;;;;2.17;1.88;;;24.50;99.90;;;;;;5054876;28;20396;-76
2022/08/16 08:32:26;;;;;;;1.83;1.73;;;24.50;99.90;;;;;;5053309;28;20192;-76
2022/08/16 08:34:54;;;;;;;1.88;1.77;;;24.40;99.90;;;;;;5057081;28;20250;-76
2022/08/16 08:37:22;;;;;;;1.80;1.70;;;24.40;99.90;;;;;;5055819;28;20199;-77
2022/08/16 08:39:49;;;;;;;1.77;1.52;;;24.60;99.90;;;;;;5053864;28;20227;-77
2022/08/16 08:42:16;;;;;;;1.80;1.70;;;24.80;99.90;;;;;;5059427;28;20268;-78
2022/08/16 08:44:43;;;;;;;3.15;1.80;;;25.00;99.90;;;;;;5056106;28;20301;-77
2022/08/16 08:47:10;;;;;;;2.03;1.83;;;25.00;99.90;;;;;;5058579;28;20187;-75
2022/08/16 08:49:38;;;;;;;1.60;1.50;;;25.00;99.90;;;;;;5045548;28;20233;-76
2022/08/16 08:52:07;;;;;;;2.00;1.90;;;25.20;99.90;;;;;;5050467;28;20638;-76
2022/08/16 08:54:35;;;;;;;2.08;1.80;;;25.30;99.90;;;;;;5052097;28;20219;-79
2022/08/16 08:57:02;;;;;;;2.47;1.90;;;25.60;99.90;;;;;;5054206;28;20230;-76
2022/08/16 08:59:30;;;;;;;2.00;1.90;;;25.60;99.90;;;;;;5051999;28;20219;-76
2022/08/16 09:01:58;;;;;;;1.67;1.58;;;25.50;99.90;;;;;;5051413;28;20222;-77
2022/08/16 09:04:26;;;;;;;1.60;1.50;;;25.50;99.90;;;;;;5053984;28;20233;-77
2022/08/16 09:06:53;;;;;;;1.92;1.70;;;25.60;99.90;;;;;;5058261;28;20243;-77
2022/08/16 09:09:22;;;;;;;3.85;1.77;;;25.70;99.90;;;;;;5052110;28;20241;-75
2022/08/16 09:11:49;;;;;;;1.98;1.80;;;25.90;99.90;;;;;;5047555;28;20202;-76
2022/08/16 09:14:17;;;;;;;2.85;1.50;;;25.90;99.90;;;;;;5048922;28;20230;-76
2022/08/16 09:16:44;;;;;;;1.98;1.70;;;25.70;99.90;;;;;;5054101;28;20221;-77
2022/08/16 09:19:11;;;;;;;1.95;1.85;;;25.90;99.90;;;;;;5052370;28;20218;-76
2022/08/16 09:21:38;;;;;;;1.80;1.70;;;25.90;99.90;;;;;;5052317;28;20226;-76
2022/08/16 09:24:05;;;;;;;1.90;1.80;;;26.00;99.90;;;;;;5047011;28;20310;-79
2022/08/16 09:26:34;;;;;;;1.88;1.77;;;26.10;99.90;;;;;;5050809;28;20219;-75
2022/08/16 09:29:01;;;;;;;2.20;1.77;;;26.20;99.90;;;;;;5051498;28;20951;-77
2022/08/16 09:31:28;;;;;;;2.95;1.80;;;26.40;99.90;;;;;;5052593;28;20226;-76
2022/08/16 09:33:55;;;;;;;2.22;2.03;;;26.70;99.90;;;;;;5051875;28;20218;-78
2022/08/16 09:36:23;;;;;;;2.45;1.75;;;27.00;99.90;;;;;;5046893;28;20225;-76
2022/08/16 09:38:50;;;;;;;1.63;1.52;;;27.20;99.90;;;;;;5041200;28;20214;-76
2022/08/16 09:41:17;;;;;;;1.50;1.40;;;27.20;99.90;;;;;;5047489;28;21008;-75
2022/08/16 09:43:46;;;;;;;1.50;1.40;;;27.30;99.90;;;;;;5049410;28;20210;-80
2022/08/16 09:46:13;;;;;;;2.55;1.80;;;27.20;99.90;;;;;;5050353;28;20273;-77
2022/08/16 09:48:41;;;;;;;1.40;1.30;;;27.10;99.90;;;;;;5054020;28;20210;-78
2022/08/16 09:51:10;;;;;;;1.83;1.65;;;27.10;99.90;;;;;;5052142;28;20222;-78
2022/08/16 09:53:37;;;;;;;1.80;1.70;;;27.30;99.90;;;;;;5051219;28;20219;-78
2022/08/16 09:56:08;;;;;;;1.98;1.60;;;27.20;99.90;;;;;;5048981;28;20238;-77
2022/08/16 09:58:35;;;;;;;1.80;1.60;;;27.20;99.90;;;;;;5049049;28;20199;-76
2022/08/16 10:01:04;;;;;;;2.45;1.70;;;27.20;99.90;;;;;;5046969;28;20613;-76
2022/08/16 10:03:31;;;;;;;2.00;1.80;;;27.40;99.90;;;;;;5043733;28;21056;-77
2022/08/16 10:05:58;;;;;;;1.70;1.60;;;27.40;99.90;;;;;;5042553;28;20231;-76
2022/08/16 10:08:25;;;;;;;4.03;1.92;;;27.30;99.90;;;;;;5038941;28;20217;-76
2022/08/16 10:13:38;;;;;;;1.70;1.60;;;27.40;99.90;;;;;;5042128;28;21388;-76
2022/08/16 10:16:07;;;;;;;2.15;1.55;;;27.60;99.90;;;;;;5039188;28;20221;-77
2022/08/16 10:18:34;;;;;;;3.25;2.03;;;28.00;99.90;;;;;;5040771;28;21110;-77
2022/08/16 10:21:01;;;;;;;1.70;1.60;;;28.00;99.90;;;;;;5038003;28;20215;-78
2022/08/16 10:23:29;;;;;;;1.67;1.58;;;27.90;99.90;;;;;;5043870;28;20620;-80
2022/08/16 10:25:56;;;;;;;2.47;1.70;;;28.00;99.90;;;;;;5045902;28;20246;-81
2022/08/16 10:28:24;;;;;;;1.80;1.70;;;28.10;99.90;;;;;;5040301;28;20252;-77
2022/08/16 10:30:51;;;;;;;1.88;1.75;;;28.10;99.90;;;;;;5040799;28;20796;-77
2022/08/16 10:33:19;;;;;;;1.75;1.65;;;28.10;99.90;;;;;;5042182;28;20207;-76
2022/08/16 10:35:47;;;;;;;1.85;1.50;;;28.10;99.90;;;;;;5037557;28;20222;-77
2022/08/16 10:38:15;;;;;;;1.60;1.50;;;28.30;99.90;;;;;;5039780;28;20205;-77
2022/08/16 10:40:43;;;;;;;1.80;1.70;;;28.40;99.90;;;;;;5036192;28;20309;-81
2022/08/16 10:43:11;;;;;;;1.42;1.33;;;28.80;99.90;;;;;;5040847;28;20226;-77
2022/08/16 10:45:39;;;;;;;1.50;1.40;;;29.20;99.90;;;;;;5039181;28;20280;-78
2022/08/16 10:48:09;;;;;;;1.90;1.80;;;29.40;99.90;;;;;;5038836;28;20215;-78
2022/08/16 10:50:38;;;;;;;1.40;1.40;;;29.30;99.90;;;;;;5035691;28;20223;-76
2022/08/16 10:53:06;;;;;;;1.60;1.50;;;29.00;99.90;;;;;;5036453;28;20191;-75
2022/08/16 10:55:35;;;;;;;3.08;1.60;;;28.90;99.90;;;;;;5040400;28;20214;-77
2022/08/16 10:58:04;;;;;;;1.60;1.50;;;28.70;99.90;;;;;;5041339;28;20223;-81
2022/08/16 11:00:32;;;;;;;1.70;1.60;;;28.70;99.90;;;;;;5034870;28;20227;-78
2022/08/16 11:03:00;;;;;;;1.73;1.63;;;28.60;99.90;;;;;;5037583;28;20303;-76
2022/08/16 11:05:28;;;;;;;1.50;1.40;;;28.90;99.90;;;;;;5035515;28;20233;-78
2022/08/16 11:07:56;;;;;;;1.73;1.60;;;29.10;99.90;;;;;;5038312;28;20622;-78
2022/08/16 11:10:30;;;;;;;1.70;1.60;;;29.10;99.90;;;;;;5035675;28;20597;-77
2022/08/16 11:12:58;;;;;;;3.78;1.63;;;29.20;99.90;;;;;;5033488;28;20183;-76
2022/08/16 11:15:25;;;;;;;1.70;1.60;;;29.20;99.90;;;;;;5034311;28;20223;-75
2022/08/16 11:17:54;;;;;;;2.35;1.48;;;29.40;99.90;;;;;;5040420;28;20195;-77
2022/08/16 11:20:22;;;;;;;1.50;1.40;;;29.50;99.90;;;;;;5039196;28;20210;-78
2022/08/16 11:22:50;;;;;;;2.75;1.60;;;29.80;99.90;;;;;;5040831;28;20217;-75
2022/08/16 11:25:22;;;;;;;1.35;1.27;;;29.70;99.90;;;;;;5036966;28;20288;-74
2022/08/16 11:27:49;;;;;;;1.50;1.35;;;29.80;99.90;;;;;;5036593;28;20199;-76
2022/08/16 11:30:18;;;;;;;1.15;1.15;;;29.80;99.90;;;;;;5037588;28;20223;-75
2022/08/16 11:32:45;;;;;;;1.33;1.23;;;29.80;99.90;;;;;;5036359;28;20245;-79
2022/08/16 11:35:14;;;;;;;2.80;1.08;;;29.80;99.90;;;;;;5030814;28;20230;-79
2022/08/16 11:37:44;;;;;;;1.88;1.30;;;29.80;99.90;;;;;;5037640;28;20222;-78
2022/08/16 11:40:12;;;;;;;1.15;1.05;;;30.00;99.90;;;;;;5037103;28;20226;-75
2022/08/16 11:42:41;;;;;;;1.88;1.17;;;30.00;99.90;;;;;;5041742;28;20218;-76
2022/08/16 11:45:09;;;;;;;1.15;1.10;;;29.80;99.90;;;;;;5037278;28;20223;-86
2022/08/16 11:47:37;;;;;;;1.60;1.10;;;29.60;99.90;;;;;;5042344;28;20200;-78
2022/08/16 11:50:07;;;;;;;1.90;1.10;;;29.80;99.90;;;;;;5043251;28;20230;-75
2022/08/16 11:52:34;;;;;;;3.38;1.35;;;29.90;99.90;;;;;;5040955;28;20196;-76
2022/08/16 11:55:02;;;;;;;1.85;1.23;;;30.00;99.90;;;;;;5044805;28;20246;-76
2022/08/16 11:57:29;;;;;;;1.00;1.00;;;30.00;99.90;;;;;;5047430;28;20221;-78
2022/08/16 11:59:57;;;;;;;2.85;1.17;;;30.00;99.90;;;;;;5044896;28;20233;-75
2022/08/16 12:02:25;;;;;;;1.08;1.00;;;30.00;99.90;;;;;;5043448;28;20219;-74
2022/08/16 12:04:52;;;;;;;2.75;1.00;;;30.10;99.90;;;;;;5045623;28;20684;-76
2022/08/16 12:07:20;;;;;;;1.38;0.95;;;30.20;99.90;;;;;;5047141;28;20194;-75
2022/08/16 12:09:47;;;;;;;1.45;1.35;;;30.40;99.90;;;;;;5047047;28;20223;-75
2022/08/16 12:12:14;;;;;;;1.38;1.27;;;30.40;99.90;;;;;;5044904;28;20728;-75
2022/08/16 12:14:41;;;;;;;1.17;1.02;;;30.40;99.90;;;;;;5046711;28;20231;-78
2022/08/16 12:17:10;;;;;;;1.60;1.50;;;30.40;99.90;;;;;;5045360;28;20202;-77
2022/08/16 12:19:37;;;;;;;1.23;1.13;;;30.40;99.90;;;;;;5044216;28;20231;-78
2022/08/16 12:22:06;;;;;;;1.20;1.10;;;30.50;99.90;;;;;;5049792;28;20211;-79
2022/08/16 12:24:33;;;;;;;1.85;1.20;;;30.50;99.90;;;;;;5048682;28;20233;-78
2022/08/16 12:27:01;;;;;;;1.42;1.33;;;30.60;99.90;;;;;;5048109;28;20741;-79
2022/08/16 12:29:29;;;;;;;1.20;1.10;;;30.50;99.90;;;;;;5046068;28;20321;-77
2022/08/16 12:31:57;;;;;;;1.58;1.30;;;30.50;99.90;;;;;;5047493;28;20253;-76
2022/08/16 12:34:25;;;;;;;1.60;1.50;;;30.40;99.90;;;;;;5043471;28;20298;-77
2022/08/16 12:36:52;;;;;;;1.20;1.10;;;30.40;99.90;;;;;;5038264;28;20924;-77
2022/08/16 12:39:20;;;;;;;1.35;1.27;;;30.70;99.90;;;;;;5044213;28;20976;-80
2022/08/16 12:41:47;;;;;;;1.65;1.02;;;31.00;99.90;;;;;;5042822;28;20195;-75
2022/08/16 12:44:14;;;;;;;1.25;1.15;;;31.20;99.90;;;;;;5038130;28;20285;-76
2022/08/16 12:48:56;;;;;;;1.15;1.05;;;31.20;99.90;;;;;;5044989;28;20206;-77
2022/08/16 12:49:29;;;;;;;1.13;1.02;;;31.30;99.90;;;;;;5042928;28;20272;-79
2022/08/16 12:51:57;;;;;;;1.40;1.30;;;31.60;99.90;;;;;;5043779;28;20225;-75
2022/08/16 12:54:24;;;;;;;1.10;1.10;;;31.50;99.90;;;;;;5041163;28;20226;-77